Latest Weather Observations for Cape Borda

IDS60801

Issued at 6:21 pm CDT Sunday 29 March 2020 (issued every 10 minutes, with the page automatically refreshed every 10 minutes)

About weather observations | Map of weather stations | Latest weather observations for SA | Other Formats
Station Details ID: 022823 Name: CAPE BORDA Lat: -35.75 Lon: 136.60 Height: 158.0 m
Data from the previous 72 hours. | See also: Recent months at Cape Borda
Date/Time
CDT
Temp
°C
App
Temp
°C
Dew
Point
°C
Rel
Hum
%
Delta-T
°C
Wind Press
QNH
hPa
Press
MSL
hPa
Rain since
9am
mm
Dir  Spd
km/h
Gust
km/h
Spd
kts
Gust
kts
29/06:00pm 18.1 16.3 14.4 79 2.1 WSW 17 26 9 14 1012.0 1011.8 0.0
29/05:30pm 18.5 16.4 14.6 78 2.3 WSW 19 26 10 14 1011.7 - 0.0
29/05:00pm 18.7 15.6 14.4 76 2.5 WSW 24 32 13 17 1011.5 - 0.0
29/04:30pm 18.7 16.1 14.8 78 2.3 W 22 30 12 16 1011.3 - 0.0
29/04:00pm 19.4 17.3 15.3 77 2.4 W 20 28 11 15 1011.1 - 0.0
29/03:30pm 19.5 17.5 15.6 78 2.3 W 20 28 11 15 1011.0 - 0.0
29/03:00pm 18.9 16.3 15.0 78 2.3 W 22 30 12 16 1010.8 1010.6 0.0
29/02:30pm 19.8 17.9 15.7 77 2.5 W 20 26 11 14 1011.0 - 0.0
29/02:00pm 19.1 16.1 14.8 76 2.5 WSW 24 30 13 16 1011.1 - 0.0
29/01:30pm 19.0 16.0 14.9 77 2.4 WSW 24 33 13 18 1011.1 - 0.0
29/01:00pm 19.2 15.8 15.7 80 2.1 WSW 28 35 15 19 1010.8 - 0.0
29/12:30pm 19.3 16.0 16.0 81 2.0 WSW 28 35 15 19 1010.8 - 0.0
29/12:00pm 19.1 16.7 16.3 84 1.7 WSW 24 32 13 17 1010.7 1010.4 0.0
29/11:30am 18.4 15.8 16.0 86 1.4 WSW 24 33 13 18 1010.7 - 0.0
29/11:00am 18.4 15.8 15.8 85 1.5 WSW 24 32 13 17 1010.8 - 0.0
29/10:30am 18.1 14.7 15.7 86 1.4 W 28 39 15 21 1010.7 - 0.0
29/10:00am 18.2 16.7 16.7 91 0.9 W 20 28 11 15 1010.4 - 0.0
29/09:30am 17.9 16.3 16.6 92 0.8 W 20 26 11 14 1010.2 - 0.0
29/09:00am 17.5 15.9 16.4 93 0.7 W 20 26 11 14 1009.9 1009.6 0.0
29/08:30am 16.9 14.9 16.4 97 0.3 W 22 30 12 16 1009.7 - 0.0
29/08:00am 16.6 14.7 16.6 100 0.0 W 22 30 12 16 1009.0 - 0.0
29/07:30am 16.5 - 16.8 - - W 20 28 11 15 1008.5 - 0.0
29/07:00am 16.6 - 16.8 - - W 20 28 11 15 1008.4 - 0.0
29/06:30am 16.6 - 16.9 - - W 22 30 12 16 1008.2 - 0.0
29/06:00am 17.2 - 17.7 - - W 22 30 12 16 1007.7 1007.4 0.0
29/05:30am 17.4 - 17.7 - - W 19 22 10 12 1006.8 - 0.0
29/05:00am 17.5 - 17.7 - - WSW 19 24 10 13 1007.0 - 0.0
29/04:30am 17.6 16.5 17.4 99 0.1 W 19 26 10 14 1006.8 - 0.0
29/04:00am 18.1 15.5 16.8 92 0.8 W 26 33 14 18 1006.5 - 0.0
29/03:30am 19.0 18.7 15.5 80 2.1 WSW 11 15 6 8 1006.0 - 0.0
29/03:00am 19.1 18.0 15.4 79 2.2 WNW 15 20 8 11 1006.2 1006.0 0.0
29/02:30am 20.0 16.9 14.6 71 3.2 NW 24 32 13 17 1006.6 - 0.0
29/02:00am 19.9 16.9 14.9 73 2.9 N 24 33 13 18 1006.6 - 0.0
29/01:40am 21.2 17.0 13.4 61 4.5 N 28 46 15 25 1006.6 - 0.0
29/01:30am 22.0 16.7 12.5 54 5.4 NNE 32 46 17 25 1006.0 - 0.0
29/01:08am 22.0 17.1 11.4 51 5.9 NNE 28 46 15 25 1006.5 - 0.0
29/01:00am 22.9 17.3 10.0 44 7.1 NNE 30 46 16 25 1006.5 - 0.0
29/12:30am 22.6 17.3 8.3 40 7.6 NE 26 35 14 19 1006.7 - 0.0
29/12:00am 23.0 17.3 6.7 35 8.5 NE 26 35 14 19 1007.3 1007.1 0.0
 
Date/Time
CDT
Temp
°C
App
Temp
°C
Dew
Point
°C
Rel
Hum
%
Delta-T
°C
Wind Press
QNH
hPa
Press
MSL
hPa
Rain since
9am
mm
Dir  Spd
km/h
Gust
km/h
Spd
kts
Gust
kts
28/11:30pm 22.8 17.8 8.1 39 7.8 NE 24 39 13 21 1008.0 - 0.0
28/11:00pm 21.7 17.8 10.8 50 6.0 NE 22 32 12 17 1008.3 - 0.0
28/10:30pm 22.2 17.1 10.7 48 6.4 NE 28 41 15 22 1008.5 - 0.0
28/10:00pm 21.3 16.1 11.6 54 5.4 NE 30 43 16 23 1008.2 - 0.0
28/09:30pm 21.7 16.4 11.1 51 5.9 NE 30 44 16 24 1008.3 - 0.0
28/09:00pm 22.0 16.9 12.0 53 5.7 ENE 30 41 16 22 1008.2 1007.9 0.0
28/08:30pm 21.8 17.0 11.5 52 5.8 ENE 28 35 15 19 1008.5 - 0.0
28/08:00pm 22.6 17.4 8.7 41 7.4 ENE 26 33 14 18 1009.6 - 0.0
28/07:30pm 22.9 19.0 8.6 40 7.7 ENE 19 24 10 13 1010.2 - 0.0
28/07:00pm 23.6 19.3 6.8 34 8.7 NE 19 24 10 13 1010.4 - 0.0
28/06:30pm 23.8 19.9 7.0 34 8.8 NE 17 20 9 11 1010.5 - 0.0
28/06:00pm 24.1 20.0 6.4 32 9.2 NE 17 24 9 13 1010.7 1010.4 0.0
28/05:30pm 24.1 20.1 6.8 33 9.0 NNE 17 20 9 11 1011.1 - 0.0
28/05:00pm 23.3 19.5 7.4 36 8.4 NNE 17 22 9 12 1011.3 - 0.0
28/04:30pm 24.3 20.7 8.3 36 8.6 NE 17 24 9 13 1011.5 - 0.0
28/04:00pm 23.7 19.7 8.9 39 8.0 NE 20 26 11 14 1011.7 - 0.0
28/03:30pm 22.9 19.1 11.0 47 6.7 NE 22 26 12 14 1011.9 - 0.0
28/03:00pm 23.2 19.7 12.2 50 6.3 NE 22 30 12 16 1012.1 1011.9 0.0
28/02:30pm 23.2 19.7 12.2 50 6.3 NE 22 28 12 15 1012.5 - 0.0
28/02:00pm 23.2 19.4 11.3 47 6.7 NE 22 30 12 16 1012.8 - 0.0
28/01:30pm 23.4 19.8 10.5 44 7.2 NE 20 26 11 14 1013.3 - 0.0
28/01:00pm 23.0 19.4 10.4 45 7.0 NNE 20 30 11 16 1013.7 - 0.0
28/12:30pm 23.2 19.7 12.2 50 6.3 NNE 22 32 12 17 1014.3 - 0.0
28/12:00pm 22.7 19.1 12.9 54 5.7 NNE 24 35 13 19 1014.5 1014.2 0.0
28/11:30am 22.6 19.2 12.5 53 5.8 NNE 22 33 12 18 1014.8 - 0.0
28/11:00am 21.9 18.7 13.0 57 5.1 NNE 22 33 12 18 1015.1 - 0.0
28/10:30am 20.7 17.4 12.7 60 4.6 NNE 22 30 12 16 1015.3 - 0.0
28/10:00am 20.4 17.5 12.9 62 4.3 NNE 20 26 11 14 1015.4 - 0.0
28/09:30am 20.1 16.8 12.8 63 4.2 NNE 22 32 12 17 1015.3 - 0.0
28/09:00am 19.4 15.9 12.2 63 4.0 NE 22 33 12 18 1015.3 1015.0 0.0
28/08:30am 18.9 15.3 11.7 63 4.0 NE 22 30 12 16 1015.2 - 0.0
28/08:00am 19.0 14.7 10.6 58 4.6 NE 24 33 13 18 1014.9 - 0.0
28/07:30am 18.6 14.4 9.7 56 4.7 NE 22 30 12 16 1014.9 - 0.0
28/07:00am 19.1 14.2 8.4 50 5.6 NE 24 32 13 17 1014.8 - 0.0
28/06:30am 19.0 14.1 10.0 56 4.8 NE 26 35 14 19 1014.9 - 0.0
28/06:00am 18.6 14.0 9.7 56 4.7 ENE 24 30 13 16 1014.9 1014.6 0.0
28/05:30am 19.0 14.3 9.2 53 5.2 NE 24 32 13 17 1015.0 - 0.0
28/05:00am 18.8 14.1 9.3 54 5.0 ENE 24 30 13 16 1015.1 - 0.0
28/04:30am 18.9 14.3 8.3 50 5.5 ENE 22 28 12 15 1015.0 - 0.0
28/04:00am 18.9 13.8 7.7 48 5.8 ENE 24 33 13 18 1015.2 - 0.0
28/03:30am 19.0 13.6 6.5 44 6.3 ENE 24 30 13 16 1015.6 - 0.0
28/03:00am 19.0 13.5 5.8 42 6.5 ENE 24 30 13 16 1015.9 1015.6 0.0
28/02:30am 19.3 13.6 5.0 39 7.0 ENE 24 33 13 18 1016.3 - 0.0
28/02:00am 19.8 14.0 4.3 36 7.5 ENE 24 30 13 16 1016.5 - 0.0
28/01:30am 19.9 14.5 4.4 36 7.5 ENE 22 28 12 15 1016.8 - 0.0
28/01:00am 19.8 14.2 3.5 34 7.8 ENE 22 30 12 16 1017.0 - 0.0
28/12:30am 20.0 14.6 4.5 36 7.5 ENE 22 30 12 16 1017.3 - 0.0
28/12:00am 18.9 14.3 8.3 50 5.5 ENE 22 28 12 15 1017.5 1017.3 0.0
 
Date/Time
CDT
Temp
°C
App
Temp
°C
Dew
Point
°C
Rel
Hum
%
Delta-T
°C
Wind Press
QNH
hPa
Press
MSL
hPa
Rain since
9am
mm
Dir  Spd
km/h
Gust
km/h
Spd
kts
Gust
kts
27/11:30pm 19.5 15.0 6.9 44 6.4 ENE 20 26 11 14 1017.9 - 0.0
27/11:00pm 19.7 15.5 7.4 45 6.3 ENE 19 22 10 12 1018.1 - 0.0
27/10:30pm 19.4 15.3 7.8 47 6.0 ENE 19 22 10 12 1018.3 - 0.0
27/10:00pm 19.0 15.5 8.9 52 5.3 E 17 20 9 11 1018.5 - 0.0
27/09:30pm 18.6 15.1 8.8 53 5.1 ENE 17 20 9 11 1018.4 - 0.0
27/09:00pm 18.4 14.5 7.2 48 5.7 E 17 19 9 10 1018.4 1018.2 0.0
27/08:30pm 18.7 14.9 7.5 48 5.7 E 17 19 9 10 1018.4 - 0.0
27/08:00pm 19.3 14.9 4.6 38 7.1 E 17 20 9 11 1018.3 - 0.0
27/07:30pm 19.2 15.6 6.7 44 6.3 E 15 15 8 8 1018.5 - 0.0
27/07:00pm 20.7 18.4 5.5 37 7.6 ENE 7 9 4 5 1018.6 - 0.0
27/06:30pm 20.8 18.7 6.7 40 7.2 NNE 7 9 4 5 1018.6 - 0.0
27/06:00pm 21.4 18.5 4.9 34 8.2 N 9 13 5 7 1018.7 1018.5 0.0
27/05:30pm 21.6 19.0 6.3 37 7.8 NNW 9 13 5 7 1018.8 - 0.0
27/05:00pm 22.5 19.4 5.4 33 8.6 N 11 15 6 8 1018.9 - 0.0
27/04:30pm 22.8 19.7 5.7 33 8.7 N 11 15 6 8 1019.3 - 0.0
27/04:00pm 23.4 20.4 5.8 32 9.0 N 11 15 6 8 1019.6 - 0.0
27/03:30pm 22.7 18.9 3.8 29 9.3 NNE 13 17 7 9 1019.8 - 0.0
27/03:00pm 22.9 19.3 4.9 31 9.0 NNE 13 17 7 9 1020.1 1019.9 0.0
27/02:30pm 22.5 19.5 7.5 38 7.9 NE 13 19 7 10 1020.3 - 0.0
27/02:00pm 20.9 17.5 9.2 47 6.3 NNE 17 20 9 11 1021.0 - 0.0
27/01:30pm 21.2 18.4 10.1 49 6.1 NNE 15 20 8 11 1021.5 - 0.0
27/01:00pm 20.7 17.9 9.9 50 5.9 N 15 19 8 10 1021.9 - 0.0
27/12:30pm 20.3 17.9 10.1 52 5.5 N 13 19 7 10 1022.1 - 0.0
27/12:00pm 20.3 17.1 10.1 52 5.5 NE 17 22 9 12 1022.3 1022.1 0.0
27/11:30am 19.5 18.0 10.5 56 4.9 N 9 15 5 8 1022.6 - 0.0
27/11:00am 19.3 18.0 11.3 60 4.4 NNW 9 13 5 7 1022.8 - 0.0
27/10:30am 19.3 16.5 10.0 55 5.0 ENE 15 22 8 12 1022.6 - 0.0
27/10:00am 18.6 14.9 9.4 55 4.9 ENE 19 28 10 15 1022.4 - 0.0
27/09:30am 17.0 14.7 10.6 66 3.4 E 13 17 7 9 1022.4 - 0.0
27/09:00am 14.8 13.2 12.7 87 1.2 ESE 13 17 7 9 1022.4 1022.2 0.0
27/08:30am 12.4 - 12.6 - - ESE 17 20 9 11 1022.5 - 0.0
27/08:00am 12.0 - 12.3 - - ESE 17 22 9 12 1022.4 - 0.0
27/07:30am 11.8 - 12.0 - - ESE 19 20 10 11 1022.3 - 0.0
27/07:00am 12.0 9.0 11.8 99 0.1 ESE 19 22 10 12 1022.0 - 0.0
27/06:30am 12.2 8.9 11.7 97 0.3 ESE 20 26 11 14 1021.8 - 0.0
27/06:00am 12.1 8.8 11.6 97 0.3 ESE 20 26 11 14 1021.7 1021.5 0.0
27/05:30am 11.9 8.6 11.6 98 0.2 ESE 20 26 11 14 1021.8 - 0.0
27/05:00am 12.1 8.8 11.6 97 0.3 ESE 20 26 11 14 1021.7 - 0.0
27/04:30am 12.2 8.9 11.7 97 0.3 ESE 20 26 11 14 1021.9 - 0.0
27/04:00am 12.1 8.8 11.5 96 0.3 ESE 20 26 11 14 1022.1 - 0.0
27/03:30am 12.3 8.7 11.7 96 0.3 ESE 22 28 12 15 1022.4 - 0.0
27/03:00am 12.3 9.0 11.5 95 0.4 ESE 20 28 11 15 1022.6 1022.4 0.0
27/02:30am 12.3 8.7 11.7 96 0.3 ESE 22 28 12 15 1022.7 - 0.0
27/02:00am 12.4 9.1 11.6 95 0.4 ESE 20 28 11 15 1023.1 - 0.0
27/01:30am 12.3 9.2 11.5 95 0.4 ESE 19 24 10 13 1023.4 - 0.0
27/01:00am 12.3 8.9 11.4 94 0.5 ESE 20 28 11 15 1023.5 - 0.0
27/12:30am 12.5 9.2 11.6 94 0.5 ESE 20 26 11 14 1023.7 - 0.0
27/12:00am 12.6 9.3 11.5 93 0.6 ESE 20 26 11 14 1023.8 1023.6 0.0
 
Date/Time
CDT
Temp
°C
App
Temp
°C
Dew
Point
°C
Rel
Hum
%
Delta-T
°C
Wind Press
QNH
hPa
Press
MSL
hPa
Rain since
9am
mm
Dir  Spd
km/h
Gust
km/h
Spd
kts
Gust
kts
26/11:30pm 12.7 9.4 11.6 93 0.6 ESE 20 28 11 15 1023.8 - 0.0
26/11:00pm 12.7 9.3 11.3 91 0.7 ESE 20 30 11 16 1023.8 - 0.0
26/10:30pm 12.9 9.5 11.3 90 0.9 ESE 20 28 11 15 1024.0 - 0.0
26/10:00pm 13.1 9.7 11.2 88 1.0 ESE 20 24 11 13 1024.2 - 0.0
26/09:30pm 13.4 10.0 11.3 87 1.1 SE 20 28 11 15 1024.1 - 0.0
26/09:00pm 13.7 9.9 11.2 85 1.3 ESE 22 30 12 16 1024.0 1023.8 0.0
26/08:30pm 14.1 10.3 11.3 83 1.5 ESE 22 32 12 17 1023.9 - 0.0
26/08:00pm 14.7 12.2 10.9 78 2.0 ESE 15 24 8 13 1023.8 - 0.0
26/07:30pm 15.3 14.7 12.2 82 1.7 S 7 13 4 7 1023.9 - 0.0
26/07:00pm 16.3 16.3 12.3 77 2.2 WSW 4 9 2 5 1023.7 - 0.0
26/06:30pm 16.7 15.7 12.3 75 2.4 N 9 13 5 7 1023.8 - 0.0

Other formats

Comma delimited format used in spreadsheet applications
http://www.bom.gov.au/fwo/IDS60801/IDS60801.95805.axf

JavaScript Object Notation format (JSON) in row-major order
http://www.bom.gov.au/fwo/IDS60801/IDS60801.95805.json

Data quality

Most of these data are generated automatically and are frequently updated. Quality checks on data are not normally performed. It is possible for incorrect values to appear. Refer to information at About Latest Weather Observations and please check the disclaimer before using these data.